Lamartine, Pennsylvania
Current Conditions -  °F | °C
As of 4:35 AM on Monday 24 Nov 2014 (Local Time) from KFKL Reporting Station
Overcast Overcast  
Wind Chill: 52°   Ceiling: 3100
Heat Index: 52°   Visibility: 10mi
Dew Point: 48°   Wind: 18mph
Humidity: 88%   Direction: 160°SSE
Pressure: 29.37"   Gusts: 28mph
Location:  41.22°N, 79.63°W
Report Text: KFKL 240935Z AUTO 16016G24KT 10SM BKN031 OVC035 11/09 A2937 RMK AO1
Loading
Personal Weather Stations






























Interactive Weather Map New forecast layout! Learn more

10-Day Weather Forecast

Advertisements
Track Severe Weather on mobile